Huvudsida
METAR-TAF:

METAR-TAF

Flygplatser :

Mo i Rana flygplats. Røssvoll

Mo i Rana, Norge

latitud: 66-22N, longitud: 014-18E, höjd: 7 m

Aktuellt väderrapport

Denna rapport gjordes för 5 timmar och 41 minuter sedan, klockan 22:20 UTC
Vind 1 kt från väst/sydväst
Temperatur -5°C
Fuktighet 86%
Tryck 987 hPa
Sikt 10 km eller mer
Inga moln under 1 500 m eller inga cumulonimbus

METAR: ENRA 182220Z 25001KT CAVOK M05/M07 Q0987

Tid: 05:01 (04:01 UTC)

Väderprognos

Denna rapport gjordes för 11 timmar och 1 minuter sedan, klockan 17:00 UTC
Prognos gäller från 18 kl. 18 UTC till 18 kl. 23 UTC
Vind 5 kt varierande vindriktning
Sikt 10 km eller mer
Få moln på en höjd av 1000 ft
Spridda moln på en höjd av 4000 ft

TAF: ENRA 181700Z 1818/1823 VRB05KT 9999 FEW010 SCT040

Aktuella väderrapporter och prognoser från 4000 flygplatser (METAR- och TAF-rapporter).

De tillgängliga stationerna syns som gula och röda prickar på kartan.

För musen över prickarna för att se namnen på stationerna.

Klicka sedan för att få väderrapporter och prognoser.

För att ändra kartan: Klicka på de gröna knapparna med ett svart kors på för att zooma in; den gröna knappen med ett streck på för att zooma ut; eller på de gröna pilarna för angränsande kartor.


METAR-TAF: